createdAt,value
2022-12-18T00:00:30.488Z,-2.70
2022-12-18T00:02:58.780Z,-2.60
2022-12-18T00:05:28.001Z,-2.70
2022-12-18T00:07:56.177Z,-2.60
2022-12-18T00:10:24.188Z,-2.60
2022-12-18T00:12:52.264Z,-2.60
2022-12-18T00:15:21.662Z,-2.60
2022-12-18T00:17:49.651Z,-2.50
2022-12-18T00:20:22.948Z,-2.60
2022-12-18T00:22:50.997Z,-2.50
2022-12-18T00:25:19.789Z,-2.60
2022-12-18T00:27:48.082Z,-2.60
2022-12-18T00:30:16.920Z,-2.60
2022-12-18T00:32:47.839Z,-2.60
2022-12-18T00:35:15.974Z,-2.70
2022-12-18T00:37:44.221Z,-2.60
2022-12-18T00:40:15.587Z,-2.60
2022-12-18T00:42:58.744Z,-2.60
2022-12-18T00:45:28.023Z,-2.60
2022-12-18T00:47:58.970Z,-2.70
2022-12-18T00:50:28.057Z,-2.70
2022-12-18T00:52:56.335Z,-2.70
2022-12-18T00:55:24.835Z,-2.70
2022-12-18T00:57:54.054Z,-2.70
2022-12-18T01:00:22.148Z,-2.60
2022-12-18T01:02:51.023Z,-2.60
2022-12-18T01:05:21.604Z,-2.50
2022-12-18T01:07:49.943Z,-2.60
2022-12-18T01:10:18.026Z,-2.50
2022-12-18T01:12:46.711Z,-2.60
2022-12-18T01:15:15.965Z,-2.50
2022-12-18T01:17:45.223Z,-2.50
2022-12-18T01:20:14.687Z,-2.50
2022-12-18T01:22:44.285Z,-2.50
2022-12-18T01:25:13.006Z,-2.50
2022-12-18T01:27:41.199Z,-2.50
2022-12-18T01:30:10.413Z,-2.60
2022-12-18T01:32:39.395Z,-2.50
2022-12-18T01:35:08.895Z,-2.50
2022-12-18T01:37:36.980Z,-2.40
2022-12-18T01:40:08.132Z,-2.40
2022-12-18T01:42:37.402Z,-2.50
2022-12-18T01:45:25.771Z,-2.50
2022-12-18T01:47:56.387Z,-2.60
2022-12-18T01:50:27.514Z,-2.50
2022-12-18T01:52:57.922Z,-2.50
2022-12-18T01:55:31.216Z,-2.60
2022-12-18T01:58:01.561Z,-2.50
2022-12-18T02:00:31.049Z,-2.50
2022-12-18T02:02:59.282Z,-2.50
2022-12-18T02:05:38.776Z,-2.50
2022-12-18T02:08:12.626Z,-2.50
2022-12-18T02:10:50.389Z,-2.50
2022-12-18T02:13:24.093Z,-2.50
2022-12-18T02:16:00.667Z,-2.50
2022-12-18T02:18:32.409Z,-2.40
2022-12-18T02:21:10.569Z,-2.30
2022-12-18T02:23:53.794Z,-2.40
2022-12-18T02:26:29.483Z,-2.50
2022-12-18T02:29:01.268Z,-2.50
2022-12-18T02:31:37.421Z,-2.50
2022-12-18T02:34:09.586Z,-2.50
2022-12-18T02:36:43.889Z,-2.50
2022-12-18T02:39:14.609Z,-2.50
2022-12-18T02:41:54.479Z,-2.40
2022-12-18T02:44:25.169Z,-2.40
2022-12-18T02:46:56.894Z,-2.50
2022-12-18T02:49:34.043Z,-2.50
2022-12-18T02:52:10.822Z,-2.50
2022-12-18T02:54:51.356Z,-2.50
2022-12-18T02:57:30.319Z,-2.50
2022-12-18T03:00:07.577Z,-2.40
2022-12-18T03:02:42.610Z,-2.50
2022-12-18T03:05:16.523Z,-2.50
2022-12-18T03:07:51.192Z,-2.50
2022-12-18T03:10:24.443Z,-2.50
2022-12-18T03:13:02.553Z,-2.50
2022-12-18T03:15:34.658Z,-2.60
2022-12-18T03:18:13.609Z,-2.50
2022-12-18T03:20:45.581Z,-2.50
2022-12-18T03:23:18.778Z,-2.50
2022-12-18T03:25:55.338Z,-2.40
2022-12-18T03:28:28.628Z,-2.50
2022-12-18T03:31:04.649Z,-2.60
2022-12-18T03:33:40.450Z,-2.50
2022-12-18T03:36:09.740Z,-2.50
2022-12-18T03:38:38.019Z,-2.50
2022-12-18T03:41:17.710Z,-2.50
2022-12-18T03:44:15.371Z,-2.50
2022-12-18T03:46:55.085Z,-2.50
2022-12-18T03:49:30.065Z,-2.50
2022-12-18T03:52:05.461Z,-2.50
2022-12-18T03:54:37.487Z,-2.40
2022-12-18T03:57:18.025Z,-2.50
2022-12-18T03:59:49.357Z,-2.50
2022-12-18T04:02:20.856Z,-2.50
2022-12-18T04:04:52.305Z,-2.70
2022-12-18T04:07:22.106Z,-2.60
2022-12-18T04:09:52.313Z,-2.60
2022-12-18T04:12:20.649Z,-2.60
2022-12-18T04:14:51.469Z,-2.50
2022-12-18T04:17:20.199Z,-2.50
2022-12-18T04:19:49.638Z,-2.50
2022-12-18T04:22:18.384Z,-2.50
2022-12-18T04:24:50.493Z,-2.50
2022-12-18T04:27:29.128Z,-2.50
2022-12-18T04:30:00.462Z,-2.50
2022-12-18T04:32:29.196Z,-2.50
2022-12-18T04:34:57.268Z,-2.40
2022-12-18T04:37:25.718Z,-2.40
2022-12-18T04:39:54.453Z,-2.40
2022-12-18T04:42:31.059Z,-2.60
2022-12-18T04:45:01.579Z,-2.60
2022-12-18T04:47:29.597Z,-2.70
2022-12-18T04:49:57.713Z,-2.70
2022-12-18T04:52:26.354Z,-2.70
2022-12-18T04:54:54.826Z,-2.60
2022-12-18T04:57:22.787Z,-2.60
2022-12-18T04:59:50.987Z,-2.60
2022-12-18T05:02:20.818Z,-2.60
2022-12-18T05:04:49.406Z,-2.60
2022-12-18T05:07:17.397Z,-2.40
2022-12-18T05:09:45.421Z,-2.50
2022-12-18T05:12:13.923Z,-2.50
2022-12-18T05:14:41.959Z,-2.40
2022-12-18T05:17:10.125Z,-2.40
2022-12-18T05:19:39.663Z,-2.50
2022-12-18T05:22:08.084Z,-2.50
2022-12-18T05:24:36.747Z,-2.50
2022-12-18T05:27:05.300Z,-2.50
2022-12-18T05:29:34.328Z,-2.60
2022-12-18T05:32:02.679Z,-2.60
2022-12-18T05:34:30.653Z,-2.50
2022-12-18T05:37:00.302Z,-2.40
2022-12-18T05:39:31.670Z,-2.40
2022-12-18T05:42:00.110Z,-2.40
2022-12-18T05:44:28.161Z,-2.40
2022-12-18T05:46:56.890Z,-2.40
2022-12-18T05:49:25.308Z,-2.40
2022-12-18T05:51:53.443Z,-2.40
2022-12-18T05:54:23.490Z,-2.40
2022-12-18T05:56:51.541Z,-2.40
2022-12-18T05:59:20.031Z,-2.40
2022-12-18T06:01:48.842Z,-2.50
2022-12-18T06:04:17.082Z,-2.50
2022-12-18T06:06:45.630Z,-2.50
2022-12-18T06:09:14.087Z,-2.50
2022-12-18T06:11:43.482Z,-2.50
2022-12-18T06:14:12.914Z,-2.50
2022-12-18T06:16:41.062Z,-2.50
2022-12-18T06:19:09.479Z,-2.50
2022-12-18T06:21:37.622Z,-2.50
2022-12-18T06:24:06.872Z,-2.50
2022-12-18T06:26:34.875Z,-2.60
2022-12-18T06:29:04.868Z,-2.60
2022-12-18T06:31:33.469Z,-2.50
2022-12-18T06:34:01.552Z,-2.50
2022-12-18T06:36:30.396Z,-2.50
2022-12-18T06:38:58.864Z,-2.60
2022-12-18T06:41:27.617Z,-2.60
2022-12-18T06:43:59.687Z,-2.60
2022-12-18T06:46:29.974Z,-2.60
2022-12-18T06:48:58.099Z,-2.60
2022-12-18T06:51:26.561Z,-2.60
2022-12-18T06:53:54.599Z,-2.50
2022-12-18T06:56:23.058Z,-2.60
2022-12-18T06:58:52.229Z,-2.70
2022-12-18T07:01:20.390Z,-2.60
2022-12-18T07:03:54.612Z,-2.60
2022-12-18T07:06:24.535Z,-2.60
2022-12-18T07:08:53.764Z,-2.60
2022-12-18T07:11:22.055Z,-2.60
2022-12-18T07:13:52.420Z,-2.60
2022-12-18T07:16:25.201Z,-2.50
2022-12-18T07:18:56.458Z,-2.50
2022-12-18T07:21:26.099Z,-2.60
2022-12-18T07:23:54.287Z,-2.60
2022-12-18T07:26:23.816Z,-2.70
2022-12-18T07:28:52.527Z,-2.60
2022-12-18T07:31:23.341Z,-2.60
2022-12-18T07:33:52.457Z,-2.70
2022-12-18T07:36:21.839Z,-2.80
2022-12-18T07:38:50.488Z,-2.70
2022-12-18T07:41:19.813Z,-2.70
2022-12-18T07:43:48.522Z,-2.80
2022-12-18T07:46:17.651Z,-2.80
2022-12-18T07:48:49.801Z,-2.90
2022-12-18T07:51:19.067Z,-2.80
2022-12-18T07:53:49.377Z,-2.80
2022-12-18T07:56:29.424Z,-2.80
2022-12-18T07:59:00.202Z,-2.70
2022-12-18T08:01:28.834Z,-2.60
2022-12-18T08:03:59.622Z,-2.50
2022-12-18T08:06:28.013Z,-2.60
2022-12-18T08:08:58.618Z,-2.70
2022-12-18T08:11:28.946Z,-2.70
2022-12-18T08:13:57.602Z,-2.50
2022-12-18T08:16:26.844Z,-2.70
2022-12-18T08:18:55.536Z,-2.70
2022-12-18T08:21:25.346Z,-2.60
2022-12-18T08:23:54.955Z,-2.50
2022-12-18T08:26:26.458Z,-2.50
2022-12-18T08:28:57.111Z,-2.50
2022-12-18T08:31:26.089Z,-2.40
2022-12-18T08:33:55.582Z,-2.40
2022-12-18T08:36:25.724Z,-2.50
2022-12-18T08:38:55.919Z,-2.50
2022-12-18T08:41:25.306Z,-2.50
2022-12-18T08:44:11.448Z,-2.50
2022-12-18T08:46:41.213Z,-2.50
2022-12-18T08:49:10.370Z,-2.60
2022-12-18T08:51:38.757Z,-2.70
2022-12-18T08:54:07.902Z,-2.50
2022-12-18T08:59:34.007Z,-2.40
2022-12-18T09:02:02.507Z,-2.30
2022-12-18T09:04:30.751Z,-2.30
2022-12-18T09:06:59.026Z,-2.10
2022-12-18T09:09:27.012Z,-2.10
2022-12-18T09:11:56.397Z,-2.20
2022-12-18T09:14:24.457Z,-2.10
2022-12-18T09:16:52.453Z,-2.10
2022-12-18T09:19:24.555Z,-2.10
2022-12-18T09:21:52.591Z,-2.10
2022-12-18T09:24:28.089Z,-2.20
2022-12-18T09:26:58.066Z,-2.00
2022-12-18T09:29:27.282Z,-1.90
2022-12-18T09:31:55.280Z,-1.90
2022-12-18T09:34:23.653Z,-1.90
2022-12-18T09:36:53.453Z,-2.10
2022-12-18T09:39:21.840Z,-2.00
2022-12-18T09:41:55.511Z,-2.00
2022-12-18T09:44:29.070Z,-1.90
2022-12-18T09:47:05.291Z,-1.80
2022-12-18T09:49:36.764Z,-1.70
2022-12-18T09:52:10.492Z,-1.90
2022-12-18T09:54:42.824Z,-1.80
2022-12-18T09:57:15.656Z,-1.60
2022-12-18T09:59:51.570Z,-1.60
2022-12-18T10:02:23.153Z,-1.90
2022-12-18T10:05:06.270Z,-1.60
2022-12-18T10:07:50.197Z,-1.50
2022-12-18T10:10:32.596Z,-1.50
2022-12-18T10:13:09.392Z,-1.40
2022-12-18T10:15:47.869Z,-1.20
2022-12-18T10:18:27.087Z,-1.20
2022-12-18T10:20:58.903Z,-1.20
2022-12-18T10:23:34.381Z,-1.10
2022-12-18T10:26:06.038Z,-1.10
2022-12-18T10:28:37.570Z,-1.00
2022-12-18T10:31:09.480Z,-1.20
2022-12-18T10:33:38.504Z,-1.30
2022-12-18T10:36:07.256Z,-1.30
2022-12-18T10:38:35.554Z,-1.50
2022-12-18T10:41:05.728Z,-1.50
2022-12-18T10:43:36.991Z,-1.60
2022-12-18T10:46:16.644Z,-1.40
2022-12-18T10:48:57.069Z,-1.50
2022-12-18T10:53:54.224Z,-1.50
2022-12-18T10:54:19.477Z,-1.40
2022-12-18T10:56:48.312Z,-1.20
2022-12-18T10:59:18.443Z,-1.20
2022-12-18T11:04:53.540Z,-1.30
2022-12-18T11:07:21.900Z,-1.50
2022-12-18T11:10:06.109Z,-1.60
2022-12-18T11:12:34.260Z,-1.70
2022-12-18T11:15:02.378Z,-1.70
2022-12-18T11:17:35.749Z,-1.80
2022-12-18T11:20:07.889Z,-1.90
2022-12-18T11:22:39.529Z,-1.60
2022-12-18T11:25:33.395Z,-1.70
2022-12-18T11:28:04.845Z,-1.70
2022-12-18T11:30:34.419Z,-1.60
2022-12-18T11:33:08.344Z,-1.60
2022-12-18T11:35:45.578Z,-1.40
2022-12-18T11:38:23.786Z,-1.40
2022-12-18T11:41:01.508Z,-1.50
2022-12-18T11:43:33.676Z,-1.40
2022-12-18T11:46:06.257Z,-1.50
2022-12-18T11:48:41.503Z,-1.40
2022-12-18T11:51:16.268Z,-1.20
2022-12-18T11:53:47.737Z,-1.10
2022-12-18T11:56:32.064Z,-0.90
2022-12-18T11:59:08.924Z,-0.90
2022-12-18T12:01:48.632Z,-1.00
2022-12-18T12:04:46.569Z,-1.20
2022-12-18T12:07:25.984Z,-1.10
2022-12-18T12:10:06.505Z,-1.10
2022-12-18T12:12:49.512Z,-1.10
2022-12-18T12:15:29.613Z,-1.30
2022-12-18T12:18:09.607Z,-1.00
2022-12-18T12:20:53.347Z,-0.90
2022-12-18T12:23:32.280Z,-0.80
2022-12-18T12:26:04.908Z,-0.90
2022-12-18T12:28:57.529Z,-0.80
2022-12-18T12:31:38.864Z,-0.80
2022-12-18T12:34:15.630Z,-0.80
2022-12-18T12:36:55.425Z,-0.80
2022-12-18T12:39:29.571Z,-0.90
2022-12-18T12:42:21.402Z,-0.90
2022-12-18T12:44:57.025Z,-1.00
2022-12-18T12:47:30.576Z,-0.90
2022-12-18T12:50:00.750Z,-0.90
2022-12-18T12:52:37.076Z,-0.90
2022-12-18T12:58:04.605Z,-1.10
2022-12-18T13:00:40.701Z,-1.10
2022-12-18T13:03:18.903Z,-1.10
2022-12-18T13:05:52.871Z,-1.10
2022-12-18T13:08:31.186Z,-1.20
2022-12-18T13:11:16.410Z,-1.50
2022-12-18T13:13:43.573Z,-1.00
2022-12-18T13:13:52.955Z,-1.60
2022-12-18T13:16:24.945Z,-1.50
2022-12-18T13:18:55.273Z,-1.50
2022-12-18T13:21:28.150Z,-1.60
2022-12-18T13:23:58.343Z,-1.50
2022-12-18T13:26:36.847Z,-1.50
2022-12-18T13:29:07.036Z,-1.50
2022-12-18T13:32:02.755Z,-1.70
2022-12-18T13:34:32.673Z,-1.60
2022-12-18T13:37:35.495Z,-1.50
2022-12-18T13:40:42.019Z,-1.50
2022-12-18T13:43:29.785Z,-1.50
2022-12-18T13:46:20.484Z,-1.50
2022-12-18T13:48:59.697Z,-1.50
2022-12-18T13:51:29.656Z,-1.50
2022-12-18T13:54:01.560Z,-1.50
2022-12-18T13:56:33.381Z,-1.50
2022-12-18T13:59:16.834Z,-1.60
2022-12-18T14:01:48.579Z,-1.60
2022-12-18T14:04:28.511Z,-1.60
2022-12-18T14:07:00.751Z,-1.70
2022-12-18T14:09:32.899Z,-1.70
2022-12-18T14:12:21.520Z,-1.70
2022-12-18T14:14:55.207Z,-1.70
2022-12-18T14:17:25.269Z,-1.70
2022-12-18T14:19:54.179Z,-1.70
2022-12-18T14:22:28.661Z,-1.70
2022-12-18T14:25:16.554Z,-1.70
2022-12-18T14:27:48.561Z,-1.80
2022-12-18T14:30:28.452Z,-1.90
2022-12-18T14:33:04.200Z,-1.90
2022-12-18T14:35:32.532Z,-1.90
2022-12-18T14:38:21.539Z,-1.90
2022-12-18T14:40:49.727Z,-2.00
2022-12-18T14:43:19.522Z,-2.00
2022-12-18T14:45:48.195Z,-2.10
2022-12-18T14:48:23.149Z,-2.10
2022-12-18T14:51:03.599Z,-2.10
2022-12-18T14:53:41.026Z,-2.20
2022-12-18T14:56:18.748Z,-2.20
2022-12-18T14:58:49.661Z,-2.20
2022-12-18T15:01:27.404Z,-2.30
2022-12-18T15:03:57.389Z,-2.30
2022-12-18T15:06:35.467Z,-2.30
2022-12-18T15:09:07.493Z,-2.40
2022-12-18T15:11:48.473Z,-2.40
2022-12-18T15:14:40.680Z,-2.40
2022-12-18T15:17:18.634Z,-2.50
2022-12-18T15:19:47.807Z,-2.50
2022-12-18T15:22:23.148Z,-2.50
2022-12-18T15:24:52.159Z,-2.40
2022-12-18T15:27:27.042Z,-2.50
2022-12-18T15:30:23.210Z,-2.50
2022-12-18T15:32:52.366Z,-2.60
2022-12-18T15:35:23.521Z,-2.60
2022-12-18T15:37:52.540Z,-2.60
2022-12-18T15:40:23.269Z,-2.60
2022-12-18T15:43:12.311Z,-2.60
2022-12-18T15:45:41.848Z,-2.80
2022-12-18T15:48:24.232Z,-2.70
2022-12-18T15:50:54.473Z,-2.80
2022-12-18T15:53:22.801Z,-2.80
2022-12-18T15:56:08.996Z,-2.80
2022-12-18T15:58:37.600Z,-2.80
2022-12-18T16:01:07.249Z,-2.70
2022-12-18T16:03:38.991Z,-2.80
2022-12-18T16:06:07.831Z,-2.70
2022-12-18T16:08:36.108Z,-2.70
2022-12-18T16:11:04.478Z,-2.80
2022-12-18T16:13:32.920Z,-2.80
2022-12-18T16:16:02.171Z,-2.80
2022-12-18T16:18:35.013Z,-2.90
2022-12-18T16:21:03.045Z,-2.90
2022-12-18T16:23:31.513Z,-2.80
2022-12-18T16:25:59.481Z,-2.80
2022-12-18T16:28:27.479Z,-2.90
2022-12-18T16:30:55.632Z,-3.00
2022-12-18T16:33:23.646Z,-3.00
2022-12-18T16:35:55.212Z,-3.00
2022-12-18T16:38:23.220Z,-3.00
2022-12-18T16:41:08.906Z,-3.10
2022-12-18T16:43:36.924Z,-3.10
2022-12-18T16:46:05.077Z,-3.00
2022-12-18T16:48:33.181Z,-3.00
2022-12-18T16:51:07.110Z,-3.00
2022-12-18T16:53:35.816Z,-3.00
2022-12-18T16:56:06.078Z,-3.00
2022-12-18T16:58:35.401Z,-3.10
2022-12-18T17:01:09.403Z,-3.10
2022-12-18T17:03:38.196Z,-3.10
2022-12-18T17:06:09.355Z,-3.20
2022-12-18T17:08:37.515Z,-3.20
2022-12-18T17:11:07.165Z,-3.20
2022-12-18T17:13:35.406Z,-3.20
2022-12-18T17:16:05.462Z,-3.20
2022-12-18T17:18:35.744Z,-3.20
2022-12-18T17:21:06.431Z,-3.30
2022-12-18T17:23:35.931Z,-3.20
2022-12-18T17:26:07.257Z,-3.30
2022-12-18T17:28:36.123Z,-3.40
2022-12-18T17:31:11.242Z,-3.40
2022-12-18T17:33:39.609Z,-3.40
2022-12-18T17:36:08.637Z,-3.40
2022-12-18T17:38:39.235Z,-3.50
2022-12-18T17:41:09.157Z,-3.50
2022-12-18T17:43:40.008Z,-3.50
2022-12-18T17:46:08.702Z,-3.50
2022-12-18T17:48:37.601Z,-3.50
2022-12-18T17:51:10.618Z,-3.60
2022-12-18T17:53:41.693Z,-3.50
2022-12-18T17:56:13.121Z,-3.50
2022-12-18T17:58:42.161Z,-3.50
2022-12-18T18:01:10.955Z,-3.50
2022-12-18T18:03:42.487Z,-3.50
2022-12-18T18:06:11.007Z,-3.50
2022-12-18T18:08:40.397Z,-3.40
2022-12-18T18:11:30.789Z,-3.50
2022-12-18T18:14:02.670Z,-3.50
2022-12-18T18:16:33.665Z,-3.40
2022-12-18T18:19:04.987Z,-3.50
2022-12-18T18:21:34.999Z,-3.50
2022-12-18T18:24:05.783Z,-3.40
2022-12-18T18:26:35.312Z,-3.40
2022-12-18T18:29:05.685Z,-3.30
2022-12-18T18:31:40.761Z,-3.40
2022-12-18T18:34:09.833Z,-3.30
2022-12-18T18:36:37.851Z,-3.30
2022-12-18T18:39:07.291Z,-3.20
2022-12-18T18:41:40.016Z,-3.30
2022-12-18T18:44:08.579Z,-3.30
2022-12-18T18:46:37.249Z,-3.20
2022-12-18T18:49:05.608Z,-3.20
2022-12-18T18:51:35.308Z,-3.30
2022-12-18T18:54:04.793Z,-3.20
2022-12-18T18:57:03.932Z,-3.30
2022-12-18T18:59:29.140Z,-3.20
2022-12-18T19:02:04.172Z,-3.30
2022-12-18T19:04:33.303Z,-3.20
2022-12-18T19:07:02.028Z,-3.30
2022-12-18T19:09:31.228Z,-3.20
2022-12-18T19:12:18.841Z,-3.20
2022-12-18T19:14:47.050Z,-3.20
2022-12-18T19:17:15.159Z,-3.10
2022-12-18T19:19:44.265Z,-3.20
2022-12-18T19:22:12.579Z,-3.20
2022-12-18T19:24:40.641Z,-3.10
2022-12-18T19:27:11.501Z,-3.20
2022-12-18T19:29:39.695Z,-3.20
2022-12-18T19:32:15.074Z,-3.10
2022-12-18T19:34:43.378Z,-3.10
2022-12-18T19:37:13.989Z,-3.20
2022-12-18T19:39:42.909Z,-3.20
2022-12-18T19:42:12.483Z,-3.20
2022-12-18T19:44:41.465Z,-3.20
2022-12-18T19:47:09.973Z,-3.10
2022-12-18T19:49:38.674Z,-3.10
2022-12-18T19:52:06.845Z,-3.20
2022-12-18T19:54:35.049Z,-3.10
2022-12-18T19:57:05.883Z,-3.10
2022-12-18T19:59:35.805Z,-3.10
2022-12-18T20:02:05.609Z,-3.10
2022-12-18T20:04:33.740Z,-3.00
2022-12-18T20:07:01.934Z,-3.00
2022-12-18T20:09:31.375Z,-3.10
2022-12-18T20:12:00.478Z,-3.20
2022-12-18T20:14:28.732Z,-3.10
2022-12-18T20:16:59.082Z,-3.10
2022-12-18T20:19:29.871Z,-3.10
2022-12-18T20:21:58.450Z,-3.00
2022-12-18T20:24:27.392Z,-3.10
2022-12-18T20:26:56.310Z,-3.00
2022-12-18T20:29:24.384Z,-3.00
2022-12-18T20:31:52.777Z,-3.00
2022-12-18T20:34:22.446Z,-3.00
2022-12-18T20:36:51.377Z,-3.00
2022-12-18T20:39:21.711Z,-3.00
2022-12-18T20:41:51.024Z,-3.00
2022-12-18T20:44:22.473Z,-3.00
2022-12-18T20:46:55.578Z,-3.00
2022-12-18T20:49:26.358Z,-3.10
2022-12-18T20:51:56.793Z,-3.00
2022-12-18T20:54:26.937Z,-3.00
2022-12-18T20:56:55.586Z,-3.00
2022-12-18T20:59:25.533Z,-3.00
2022-12-18T21:01:55.449Z,-3.00
2022-12-18T21:04:25.835Z,-3.00
2022-12-18T21:06:57.976Z,-3.00
2022-12-18T21:09:37.327Z,-3.00
2022-12-18T21:12:26.595Z,-3.00
2022-12-18T21:14:55.029Z,-3.00
2022-12-18T21:17:23.435Z,-3.00
2022-12-18T21:19:55.964Z,-3.00
2022-12-18T21:22:25.307Z,-2.90
2022-12-18T21:24:53.475Z,-2.90
2022-12-18T21:27:21.862Z,-2.90
2022-12-18T21:29:50.159Z,-3.00
2022-12-18T21:32:19.794Z,-3.00
2022-12-18T21:34:50.135Z,-3.00
2022-12-18T21:37:19.545Z,-3.00
2022-12-18T21:39:48.289Z,-3.00
2022-12-18T21:42:33.969Z,-3.00
2022-12-18T21:45:02.443Z,-3.00
2022-12-18T21:47:30.413Z,-3.00
2022-12-18T21:49:58.536Z,-3.00
2022-12-18T21:52:32.192Z,-3.00
2022-12-18T21:55:08.320Z,-3.00
2022-12-18T21:57:37.211Z,-3.20
2022-12-18T22:00:07.292Z,-3.20
2022-12-18T22:02:42.282Z,-3.10
2022-12-18T22:05:10.805Z,-3.10
2022-12-18T22:07:40.949Z,-3.00
2022-12-18T22:10:09.887Z,-3.00
2022-12-18T22:12:43.719Z,-3.00
2022-12-18T22:15:15.741Z,-3.10
2022-12-18T22:17:50.715Z,-3.10
2022-12-18T22:20:19.918Z,-3.10
2022-12-18T22:22:51.659Z,-3.10
2022-12-18T22:25:20.246Z,-3.20
2022-12-18T22:28:08.555Z,-3.20
2022-12-18T22:30:35.992Z,-3.10
2022-12-18T22:33:04.838Z,-3.10
2022-12-18T22:35:33.208Z,-3.00
2022-12-18T22:38:03.288Z,-3.00
2022-12-18T22:40:31.548Z,-3.10
2022-12-18T22:42:59.742Z,-3.10
2022-12-18T22:45:28.287Z,-3.10
2022-12-18T22:47:58.471Z,-3.20
2022-12-18T22:50:26.540Z,-3.20
2022-12-18T22:52:55.023Z,-3.30
2022-12-18T22:55:24.456Z,-3.20
2022-12-18T22:57:52.470Z,-3.20
2022-12-18T23:00:23.969Z,-3.30
2022-12-18T23:02:59.401Z,-3.10
2022-12-18T23:05:29.317Z,-3.20
2022-12-18T23:07:57.696Z,-3.20
2022-12-18T23:10:27.219Z,-3.20
2022-12-18T23:12:55.392Z,-3.30
2022-12-18T23:15:27.765Z,-3.20
2022-12-18T23:17:59.215Z,-3.20
2022-12-18T23:20:28.212Z,-3.10
2022-12-18T23:22:56.255Z,-3.10
2022-12-18T23:25:28.942Z,-3.10
2022-12-18T23:27:57.033Z,-3.10
2022-12-18T23:30:25.982Z,-3.10
2022-12-18T23:32:53.980Z,-3.10
2022-12-18T23:35:22.378Z,-3.10
2022-12-18T23:37:59.513Z,-3.10
2022-12-18T23:40:30.082Z,-3.10
2022-12-18T23:42:58.263Z,-3.10
2022-12-18T23:45:26.298Z,-3.10
2022-12-18T23:47:54.290Z,-3.10
2022-12-18T23:50:28.857Z,-3.00
2022-12-18T23:53:04.820Z,-3.00
2022-12-18T23:55:39.821Z,-3.00
2022-12-18T23:58:08.879Z,-3.00
